AGS weather

Augusta Regional At Bush Field
Augusta, Georgia, United States

Public forecast

Using degrees Fahrenheit for public forecast. Weather courtesy of forecast.io.

Current aviation weather report (METAR) for Augusta Regional At Bush Field

Retrieved 2019/10/22 09:53 UTC (8 minutes ago):

KAGS 220953Z AUTO 00000KT 1 1/4SM BR OVC002 22/21 A2990 RMK AO2 RAB07E31 SLP124 P0000 T02170206

Aviation forecast (TAF) for Augusta Regional At Bush Field

Retrieved 2019/10/22 06:06 UTC (4 hours ago):

TAF COR KAGS 220603Z 2206/2306 15007KT P6SM OVC008 FM220800 18006KT 4SM BR VCSH BKN004 OVC008 FM221400 25010KT 6SM -SHRA BKN012 OVC025 FM221700 28011G17KT 6SM -SHRA SCT012 BKN035 FM221900 28012G18KT P6SM FEW035 FM230000 29008KT P6SM SKC